Terminal Aerodrome Forecast
Issued by NWS

Home | Current Version | Previous Version | Graphics & Text | Print | Product List | Glossary On
Versions: 1 2 3 4 5 6 7 8 9 10 11 12 13 14 15 16 17 18 19 20 21
379
FTUS43 KBIS 220707 AAA
TAFDIK
TAF AMD
KDIK 220707Z 2207/2306 28010KT P6SM VCFG SKC
      TEMPO 2209/2212 4SM BR BKN006 OVC010
     FM221200 28009KT 5SM BR OVC006
     FM221800 27011KT P6SM OVC015
     FM230000 26008KT P6SM BKN025 OVC035=

USA.gov is the U.S. government's official web portal to all federal, state and local government web resources and services.